createdAt,value
2022-08-17T00:02:26.895Z,13.85
2022-08-17T00:05:30.916Z,18.95
2022-08-17T00:08:35.989Z,14.20
2022-08-17T00:11:39.801Z,14.90
2022-08-17T00:14:41.889Z,14.95
2022-08-17T00:17:47.601Z,19.48
2022-08-17T00:20:49.589Z,15.18
2022-08-17T00:23:51.572Z,15.25
2022-08-17T00:26:53.537Z,16.80
2022-08-17T00:29:55.507Z,15.55
2022-08-17T00:33:12.527Z,19.00
2022-08-17T00:36:19.099Z,17.05
2022-08-17T00:39:21.004Z,33.42
2022-08-17T00:42:25.397Z,20.58
2022-08-17T00:45:30.862Z,51.47
2022-08-17T00:48:33.040Z,20.27
2022-08-17T00:54:41.917Z,17.38
2022-08-17T00:57:46.877Z,19.30
2022-08-17T01:00:48.880Z,27.80
2022-08-17T01:03:53.915Z,37.85
2022-08-17T01:07:01.353Z,16.98
2022-08-17T01:13:05.817Z,23.80
2022-08-17T01:16:23.005Z,23.17
2022-08-17T01:19:30.847Z,34.65
2022-08-17T01:22:32.865Z,22.40
2022-08-17T01:25:35.201Z,31.35
2022-08-17T01:32:00.252Z,21.13
2022-08-17T01:35:02.312Z,23.58
2022-08-17T01:38:04.572Z,29.73
2022-08-17T01:41:09.571Z,46.25
2022-08-17T01:44:12.097Z,22.05
2022-08-17T01:47:14.077Z,18.58
2022-08-17T01:50:19.404Z,20.67
2022-08-17T01:53:23.948Z,20.80
2022-08-17T01:56:26.087Z,21.70
2022-08-17T02:02:30.253Z,41.20
2022-08-17T02:05:33.213Z,32.03
2022-08-17T02:11:58.940Z,19.42
2022-08-17T02:15:01.153Z,18.80
2022-08-17T02:21:05.874Z,24.92
2022-08-17T02:24:09.077Z,25.27
2022-08-17T02:27:11.101Z,28.25
2022-08-17T02:31:02.294Z,26.83
2022-08-17T02:33:42.742Z,24.98
2022-08-17T02:36:45.526Z,31.05
2022-08-17T02:39:47.860Z,23.48
2022-08-17T02:42:50.130Z,22.92
2022-08-17T02:45:52.193Z,20.02
2022-08-17T02:51:57.696Z,21.47
2022-08-17T02:54:59.625Z,21.58
2022-08-17T02:58:03.686Z,24.17
2022-08-17T03:01:06.555Z,29.42
2022-08-17T03:04:08.611Z,28.63
2022-08-17T03:07:10.605Z,31.45
2022-08-17T03:10:12.852Z,28.80
2022-08-17T03:16:16.863Z,22.02
2022-08-17T03:19:18.840Z,23.58
2022-08-17T03:22:36.971Z,22.80
2022-08-17T03:25:43.399Z,20.67
2022-08-17T03:28:47.478Z,21.38
2022-08-17T03:31:49.960Z,20.33
2022-08-17T03:34:51.934Z,23.65
2022-08-17T03:38:00.173Z,24.40
2022-08-17T03:41:03.298Z,23.92
2022-08-17T03:44:05.389Z,31.10
2022-08-17T03:47:25.776Z,29.27
2022-08-17T03:50:46.276Z,23.30
2022-08-17T03:54:14.500Z,22.67
2022-08-17T03:57:16.765Z,22.75
2022-08-17T04:03:20.735Z,29.13
2022-08-17T04:06:22.735Z,28.60
2022-08-17T04:09:24.867Z,24.70
2022-08-17T04:12:30.825Z,21.67
2022-08-17T04:15:33.667Z,23.02
2022-08-17T04:18:35.625Z,20.95
2022-08-17T04:21:37.579Z,23.58
2022-08-17T04:24:39.563Z,27.23
2022-08-17T04:27:41.506Z,23.73
2022-08-17T04:30:45.201Z,21.95
2022-08-17T04:33:47.195Z,22.63
2022-08-17T04:36:50.571Z,22.13
2022-08-17T04:40:12.576Z,21.67
2022-08-17T04:43:18.817Z,22.35
2022-08-17T04:46:22.580Z,23.33
2022-08-17T04:49:24.623Z,26.70
2022-08-17T04:52:32.203Z,27.17
2022-08-17T04:55:48.833Z,29.63
2022-08-17T05:01:53.054Z,27.98
2022-08-17T05:04:54.998Z,29.20
2022-08-17T05:07:58.736Z,28.77
2022-08-17T05:11:01.578Z,31.10
2022-08-17T05:14:03.730Z,29.15
2022-08-17T05:17:07.292Z,33.03
2022-08-17T05:20:13.367Z,32.22
2022-08-17T05:23:17.174Z,34.35
2022-08-17T05:26:26.833Z,31.25
2022-08-17T05:29:35.553Z,29.85
2022-08-17T05:32:40.352Z,27.08
2022-08-17T05:35:50.117Z,31.20
2022-08-17T05:38:52.029Z,28.33
2022-08-17T05:41:54.052Z,33.15
2022-08-17T05:44:58.020Z,30.65
2022-08-17T05:47:59.965Z,27.85
2022-08-17T05:51:29.837Z,23.88
2022-08-17T05:55:02.088Z,28.95
2022-08-17T05:58:34.309Z,27.85
2022-08-17T06:02:00.989Z,26.02
2022-08-17T06:05:44.407Z,26.33
2022-08-17T06:09:12.180Z,29.63
2022-08-17T06:12:29.237Z,30.00
2022-08-17T06:15:33.302Z,35.33
2022-08-17T06:18:48.281Z,35.42
2022-08-17T06:21:51.470Z,38.58
2022-08-17T06:25:13.803Z,40.20
2022-08-17T06:28:27.347Z,39.65
2022-08-17T06:31:34.237Z,43.10
2022-08-17T06:34:37.517Z,43.42
2022-08-17T06:38:04.379Z,44.38
2022-08-17T06:41:27.528Z,42.40
2022-08-17T06:44:51.450Z,42.47
2022-08-17T06:47:59.496Z,48.25
2022-08-17T06:51:03.979Z,47.08
2022-08-17T06:54:11.715Z,47.83
2022-08-17T06:57:25.376Z,47.65
2022-08-17T07:00:29.664Z,47.03
2022-08-17T07:03:46.462Z,51.53
2022-08-17T07:06:53.318Z,49.30
2022-08-17T07:09:57.599Z,49.97
2022-08-17T07:13:14.125Z,48.08
2022-08-17T07:16:28.489Z,45.17
2022-08-17T07:19:32.088Z,46.17
2022-08-17T07:22:57.520Z,47.55
2022-08-17T07:26:10.237Z,46.50
2022-08-17T07:29:12.187Z,46.88
2022-08-17T07:32:18.428Z,46.80
2022-08-17T07:35:24.852Z,46.80
2022-08-17T07:38:39.925Z,46.78
2022-08-17T07:41:57.840Z,44.83
2022-08-17T07:45:21.243Z,43.95
2022-08-17T07:48:25.109Z,43.75
2022-08-17T07:52:47.468Z,41.92
2022-08-17T07:55:29.486Z,43.58
2022-08-17T07:58:31.511Z,43.08
2022-08-17T08:05:01.417Z,41.88
2022-08-17T08:08:06.083Z,43.83
2022-08-17T08:11:11.187Z,46.65
2022-08-17T08:14:28.641Z,43.88
2022-08-17T08:17:35.858Z,45.83
2022-08-17T08:20:53.883Z,46.92
2022-08-17T08:24:01.403Z,47.15
2022-08-17T08:27:09.256Z,48.22
2022-08-17T08:30:16.282Z,46.03
2022-08-17T08:33:29.948Z,46.10
2022-08-17T08:36:57.053Z,47.97
2022-08-17T08:40:08.410Z,48.83
2022-08-17T08:43:22.394Z,45.95
2022-08-17T08:46:40.711Z,46.47
2022-08-17T08:50:37.524Z,47.17
2022-08-17T08:54:01.825Z,44.42
2022-08-17T08:57:26.910Z,44.08
2022-08-17T09:00:35.900Z,42.88
2022-08-17T09:03:53.358Z,41.53
2022-08-17T09:06:58.540Z,38.53
2022-08-17T09:10:30.990Z,39.08
2022-08-17T09:13:45.008Z,34.55
2022-08-17T09:16:50.264Z,34.80
2022-08-17T09:19:57.065Z,34.58
2022-08-17T09:23:14.678Z,35.30
2022-08-17T09:26:22.669Z,35.75
2022-08-17T09:29:28.079Z,34.60
2022-08-17T09:32:52.168Z,33.75
2022-08-17T09:36:05.697Z,33.33
2022-08-17T09:39:27.672Z,32.45
2022-08-17T09:42:49.374Z,32.00
2022-08-17T09:46:01.942Z,32.45
2022-08-17T09:49:27.930Z,32.25
2022-08-17T09:52:30.146Z,32.65
2022-08-17T09:55:38.265Z,32.20
2022-08-17T09:59:06.289Z,31.60
2022-08-17T10:02:34.820Z,31.23
2022-08-17T10:05:56.472Z,32.58
2022-08-17T10:09:07.464Z,31.50
2022-08-17T10:12:38.631Z,29.83
2022-08-17T10:15:56.985Z,29.45
2022-08-17T10:19:14.152Z,30.17
2022-08-17T10:22:51.192Z,29.27
2022-08-17T10:26:14.612Z,26.13
2022-08-17T10:29:20.245Z,25.23
2022-08-17T10:32:31.396Z,24.83
2022-08-17T10:36:03.648Z,24.90
2022-08-17T10:39:23.042Z,22.88
2022-08-17T10:42:34.907Z,23.20
2022-08-17T10:45:45.133Z,22.95
2022-08-17T10:49:15.006Z,22.17
2022-08-17T10:52:20.144Z,23.10
2022-08-17T10:55:22.292Z,21.38
2022-08-17T10:58:24.760Z,20.13
2022-08-17T11:01:43.454Z,20.65
2022-08-17T11:04:45.368Z,20.02
2022-08-17T11:08:01.749Z,21.58
2022-08-17T11:11:15.922Z,23.05
2022-08-17T11:14:23.790Z,25.88
2022-08-17T11:17:44.473Z,25.33
2022-08-17T11:21:10.775Z,26.55
2022-08-17T11:24:21.169Z,24.48
2022-08-17T11:27:34.163Z,25.15
2022-08-17T11:30:48.638Z,25.17
2022-08-17T11:34:05.428Z,24.40
2022-08-17T11:37:33.033Z,23.00
2022-08-17T11:40:50.384Z,21.95
2022-08-17T11:44:23.465Z,23.65
2022-08-17T11:48:16.411Z,24.67
2022-08-17T11:51:35.682Z,24.70
2022-08-17T11:54:47.506Z,23.48
2022-08-17T11:58:05.609Z,24.25
2022-08-17T12:01:24.457Z,24.35
2022-08-17T12:04:33.737Z,25.17
2022-08-17T12:07:35.685Z,24.90
2022-08-17T12:11:01.694Z,24.15
2022-08-17T12:14:03.693Z,23.52
2022-08-17T12:17:07.159Z,23.40
2022-08-17T12:20:15.585Z,23.88
2022-08-17T12:23:25.758Z,22.58
2022-08-17T12:26:33.124Z,22.95
2022-08-17T12:29:38.680Z,22.63
2022-08-17T12:32:41.197Z,23.45
2022-08-17T12:35:43.538Z,22.23
2022-08-17T12:38:53.303Z,21.42
2022-08-17T12:42:01.557Z,22.48
2022-08-17T12:45:07.545Z,21.73
2022-08-17T12:48:14.120Z,22.30
2022-08-17T12:51:16.216Z,23.17
2022-08-17T12:54:31.677Z,22.25
2022-08-17T12:57:34.480Z,22.15
2022-08-17T13:00:47.319Z,22.25
2022-08-17T13:03:54.812Z,22.10
2022-08-17T13:06:59.726Z,22.50
2022-08-17T13:10:02.615Z,20.80
2022-08-17T13:13:17.706Z,21.23
2022-08-17T13:16:28.092Z,21.52
2022-08-17T13:19:40.332Z,20.40
2022-08-17T13:22:45.409Z,20.27
2022-08-17T13:26:22.175Z,18.33
2022-08-17T13:29:37.260Z,23.42
2022-08-17T13:32:45.099Z,17.67
2022-08-17T13:35:50.547Z,18.60
2022-08-17T13:38:52.620Z,18.98
2022-08-17T13:41:56.156Z,18.17
2022-08-17T13:44:58.463Z,18.50
2022-08-17T13:48:10.954Z,19.95
2022-08-17T13:51:20.410Z,16.50
2022-08-17T13:54:33.321Z,20.70
2022-08-17T13:57:35.467Z,22.10
2022-08-17T14:00:37.523Z,24.92
2022-08-17T14:03:40.926Z,22.48
2022-08-17T14:06:51.929Z,23.50
2022-08-17T14:10:05.076Z,16.35
2022-08-17T14:13:07.231Z,13.65
2022-08-17T14:16:10.368Z,14.60
2022-08-17T14:19:13.027Z,11.80
2022-08-17T14:22:30.610Z,16.70
2022-08-17T14:25:32.921Z,11.80
2022-08-17T14:28:36.471Z,12.57
2022-08-17T14:31:39.126Z,14.60
2022-08-17T14:34:41.138Z,15.20
2022-08-17T14:37:45.902Z,16.67
2022-08-17T14:40:48.893Z,21.40
2022-08-17T14:43:53.081Z,24.90
2022-08-17T14:46:55.064Z,36.72
2022-08-17T14:49:57.317Z,15.55
2022-08-17T14:53:01.613Z,18.38
2022-08-17T14:56:04.081Z,13.10
2022-08-17T14:59:06.174Z,13.43
2022-08-17T15:02:08.255Z,14.63
2022-08-17T15:05:10.370Z,12.68
2022-08-17T15:08:12.498Z,11.13
2022-08-17T15:11:14.789Z,10.15
2022-08-17T15:14:16.791Z,10.40
2022-08-17T15:17:18.728Z,10.15
2022-08-17T15:20:23.619Z,11.40
2022-08-17T15:23:26.174Z,11.40
2022-08-17T15:26:28.178Z,11.68
2022-08-17T15:29:30.149Z,12.27
2022-08-17T15:32:34.672Z,11.57
2022-08-17T15:35:37.468Z,12.10
2022-08-17T15:38:39.425Z,11.95
2022-08-17T15:41:41.376Z,12.02
2022-08-17T15:44:44.581Z,11.48
2022-08-17T15:47:46.622Z,13.13
2022-08-17T15:50:48.632Z,12.23
2022-08-17T15:53:52.523Z,13.20
2022-08-17T15:56:54.420Z,12.40
2022-08-17T15:59:58.760Z,12.55
2022-08-17T16:03:15.345Z,14.32
2022-08-17T16:06:29.854Z,13.95
2022-08-17T16:09:31.828Z,14.02
2022-08-17T16:12:34.663Z,13.07
2022-08-17T16:15:37.581Z,13.02
2022-08-17T16:18:39.581Z,12.50
2022-08-17T16:21:42.949Z,12.20
2022-08-17T16:24:56.847Z,11.30
2022-08-17T16:27:59.970Z,11.68
2022-08-17T16:31:02.084Z,10.40
2022-08-17T16:34:16.879Z,11.40
2022-08-17T16:37:20.521Z,10.63
2022-08-17T16:40:23.444Z,9.13
2022-08-17T16:43:25.549Z,8.90
2022-08-17T16:46:29.294Z,8.60
2022-08-17T16:49:36.799Z,8.32
2022-08-17T16:52:40.156Z,7.88
2022-08-17T16:55:42.668Z,8.38
2022-08-17T16:58:44.945Z,9.20
2022-08-17T17:01:47.893Z,9.10
2022-08-17T17:04:53.824Z,8.50
2022-08-17T17:08:19.737Z,8.00
2022-08-17T17:11:26.248Z,8.80
2022-08-17T17:14:48.524Z,8.55
2022-08-17T17:17:50.666Z,9.50
2022-08-17T17:20:56.786Z,9.63
2022-08-17T17:24:00.364Z,9.02
2022-08-17T17:27:20.234Z,8.73
2022-08-17T17:30:40.068Z,8.85
2022-08-17T17:34:11.741Z,9.27
2022-08-17T17:37:15.724Z,9.95
2022-08-17T17:40:32.174Z,10.35
2022-08-17T17:43:41.366Z,10.95
2022-08-17T17:46:45.049Z,11.52
2022-08-17T17:49:48.746Z,10.88
2022-08-17T17:52:57.454Z,11.60
2022-08-17T17:56:18.800Z,12.10
2022-08-17T17:59:43.875Z,11.00
2022-08-17T18:03:05.229Z,11.43
2022-08-17T18:06:15.135Z,11.13
2022-08-17T18:09:38.851Z,12.50
2022-08-17T18:13:04.576Z,13.05
2022-08-17T18:16:06.913Z,14.10
2022-08-17T18:19:14.243Z,13.95
2022-08-17T18:22:18.903Z,12.43
2022-08-17T18:25:44.703Z,12.73
2022-08-17T18:28:46.666Z,12.52
2022-08-17T18:34:57.938Z,12.65
2022-08-17T18:38:20.793Z,12.45
2022-08-17T18:41:26.232Z,13.00
2022-08-17T18:44:38.213Z,12.52
2022-08-17T18:47:52.989Z,11.80
2022-08-17T18:51:07.618Z,12.23
2022-08-17T18:54:23.720Z,13.88
2022-08-17T18:57:37.870Z,14.35
2022-08-17T19:00:41.248Z,14.45
2022-08-17T19:03:43.357Z,14.63
2022-08-17T19:06:45.316Z,14.63
2022-08-17T19:09:52.474Z,15.18
2022-08-17T19:13:13.711Z,16.30
2022-08-17T19:16:20.446Z,15.07
2022-08-17T19:19:44.445Z,15.73
2022-08-17T19:23:00.200Z,15.75
2022-08-17T19:26:03.986Z,15.77
2022-08-17T19:29:35.674Z,16.75
2022-08-17T19:32:38.021Z,16.20
2022-08-17T19:35:44.638Z,15.00
2022-08-17T19:38:53.051Z,15.52
2022-08-17T19:42:03.766Z,14.70
2022-08-17T19:45:12.642Z,15.88
2022-08-17T19:48:57.529Z,16.00
2022-08-17T19:52:06.557Z,16.35
2022-08-17T19:55:32.026Z,17.45
2022-08-17T19:58:53.289Z,18.73
2022-08-17T20:02:04.350Z,17.02
2022-08-17T20:05:11.808Z,16.90
2022-08-17T20:08:49.660Z,15.85
2022-08-17T20:11:56.432Z,16.15
2022-08-17T20:15:10.517Z,15.35
2022-08-17T20:18:26.225Z,15.32
2022-08-17T20:21:44.116Z,16.08
2022-08-17T20:24:54.910Z,17.48
2022-08-17T20:28:06.754Z,17.20
2022-08-17T20:34:36.920Z,17.08
2022-08-17T20:37:43.278Z,15.80
2022-08-17T20:40:54.648Z,17.38
2022-08-17T20:43:58.995Z,16.55
2022-08-17T20:47:07.974Z,16.33
2022-08-17T20:50:15.172Z,16.35
2022-08-17T20:53:55.159Z,16.55
2022-08-17T20:56:58.429Z,18.00
2022-08-17T21:00:22.477Z,19.48
2022-08-17T21:03:24.421Z,21.52
2022-08-17T21:09:29.941Z,18.70
2022-08-17T21:12:48.072Z,19.25
2022-08-17T21:16:06.632Z,19.23
2022-08-17T21:19:54.164Z,18.08
2022-08-17T21:23:27.177Z,18.83
2022-08-17T21:26:30.824Z,19.23
2022-08-17T21:29:34.116Z,19.15
2022-08-17T21:32:42.812Z,18.80
2022-08-17T21:35:50.421Z,19.70
2022-08-17T21:38:57.953Z,18.63
2022-08-17T21:42:00.328Z,18.60
2022-08-17T21:45:11.186Z,19.33
2022-08-17T21:48:19.726Z,19.13
2022-08-17T21:51:27.412Z,18.80
2022-08-17T21:54:36.230Z,19.05
2022-08-17T21:57:40.715Z,18.48
2022-08-17T22:01:25.077Z,18.30
2022-08-17T22:04:30.934Z,19.20
2022-08-17T22:07:43.870Z,18.80
2022-08-17T22:10:48.465Z,19.27
2022-08-17T22:13:51.725Z,19.60
2022-08-17T22:17:16.370Z,19.77
2022-08-17T22:20:19.281Z,19.63
2022-08-17T22:23:51.540Z,20.88
2022-08-17T22:27:07.564Z,20.45
2022-08-17T22:30:33.814Z,21.27
2022-08-17T22:33:50.051Z,21.45
2022-08-17T22:37:12.165Z,22.67
2022-08-17T22:40:31.180Z,21.55
2022-08-17T22:43:35.021Z,21.92
2022-08-17T22:46:39.760Z,22.25
2022-08-17T22:49:54.710Z,22.75
2022-08-17T22:53:20.330Z,21.27
2022-08-17T22:56:42.503Z,21.35
2022-08-17T22:59:47.608Z,19.30
2022-08-17T23:03:06.366Z,19.85
2022-08-17T23:06:10.140Z,19.27
2022-08-17T23:09:12.046Z,19.25
2022-08-17T23:12:16.644Z,19.02
2022-08-17T23:15:19.267Z,18.77
2022-08-17T23:18:21.969Z,17.98
2022-08-17T23:21:27.413Z,18.85
2022-08-17T23:24:30.539Z,18.38
2022-08-17T23:27:32.467Z,18.17
2022-08-17T23:30:36.319Z,18.98
2022-08-17T23:33:41.261Z,18.95
2022-08-17T23:36:52.625Z,18.23
2022-08-17T23:39:55.004Z,17.90
2022-08-17T23:46:00.790Z,17.35
2022-08-17T23:49:03.347Z,18.30
2022-08-17T23:52:05.789Z,18.73
2022-08-17T23:55:08.464Z,17.30
2022-08-17T23:58:10.445Z,16.50
